Metamora, Ohio
Current Conditions -  °F | °C
As of 3:52 PM on Sunday 21 Dec 2014 (Local Time) from KTOL Reporting Station
Overcast Overcast  
Wind Chill: 33°   Ceiling: 2100
Heat Index: 33°   Visibility: 9mi
Dew Point: 25°   Wind: 3mph
Humidity: 72%   Direction: 160°SSE
Pressure: 30.22"   Gusts: NA
Location:  41.71°N, 83.91°W
Report Text: KTOL 212052Z 16003KT 9SM OVC021 01/M04 A3022 RMK AO2 SLP243 T00061039 56013
Loading
Personal Weather Stations






























Interactive Weather Map New forecast layout! Learn more

10-Day Weather Forecast

Advertisements
Track Severe Weather on mobile